Time;durP1;ratioP1;P1;durP2;ratioP2;P2;SDS_P1;SDS_P2;PMS_P1;PMS_P2;Temp;Humidity;BMP_temperature;BMP_pressure;BME280_temperature;BME280_humidity;BME280_pressure;Samples;Min_cycle;Max_cycle;Signal;HPM_P1;HPM_P2
2021/09/21 00:00:06;;;;;;;17.23;14.30;;;13.60;99.90;;;;;;4994250;28;20812;-70
2021/09/21 00:02:34;;;;;;;15.20;14.17;;;13.60;99.90;;;;;;4989616;28;20459;-71
2021/09/21 00:05:01;;;;;;;14.90;14.00;;;13.50;99.90;;;;;;4988763;28;20470;-72
2021/09/21 00:07:31;;;;;;;14.53;13.63;;;13.50;99.90;;;;;;4982396;28;20463;-71
2021/09/21 00:09:59;;;;;;;15.13;14.10;;;13.50;99.90;;;;;;4989612;28;20463;-71
2021/09/21 00:12:28;;;;;;;14.30;13.50;;;13.60;99.90;;;;;;4981799;28;20496;-70
2021/09/21 00:14:55;;;;;;;14.87;13.97;;;13.60;99.90;;;;;;4987601;28;20470;-72
2021/09/21 00:17:22;;;;;;;14.30;13.50;;;13.70;99.90;;;;;;4990681;28;20549;-72
2021/09/21 00:19:51;;;;;;;15.90;14.80;;;13.70;99.90;;;;;;4977447;28;20486;-71
2021/09/21 00:22:18;;;;;;;15.10;14.17;;;13.60;99.90;;;;;;4983822;28;20468;-71
2021/09/21 00:24:45;;;;;;;15.50;14.37;;;13.70;99.90;;;;;;4989173;28;20972;-71
2021/09/21 00:27:12;;;;;;;15.17;14.30;;;13.70;99.90;;;;;;4987175;28;20469;-71
2021/09/21 00:29:44;;;;;;;15.63;14.20;;;13.70;99.90;;;;;;4982500;28;20463;-71
2021/09/21 00:32:15;;;;;;;14.60;13.70;;;13.60;99.90;;;;;;4991894;28;20582;-72
2021/09/21 00:34:45;;;;;;;14.97;13.90;;;13.60;99.90;;;;;;4989043;28;20622;-71
2021/09/21 00:37:15;;;;;;;15.10;14.20;;;13.50;99.90;;;;;;4988934;28;20465;-72
2021/09/21 00:39:43;;;;;;;15.40;14.50;;;13.50;99.90;;;;;;4977639;28;20470;-71
2021/09/21 00:42:11;;;;;;;15.50;14.50;;;13.60;99.90;;;;;;4989995;28;20859;-70
2021/09/21 00:44:40;;;;;;;15.87;14.70;;;13.50;99.90;;;;;;4977474;28;20468;-71
2021/09/21 00:47:09;;;;;;;14.93;14.13;;;13.50;99.90;;;;;;4985391;28;20471;-70
2021/09/21 00:49:36;;;;;;;15.27;14.27;;;13.50;99.90;;;;;;4984770;28;20968;-72
2021/09/21 00:52:05;;;;;;;15.67;14.53;;;13.50;99.90;;;;;;4989451;28;20490;-70
2021/09/21 00:54:32;;;;;;;28.43;14.93;;;13.60;99.90;;;;;;4983825;28;20469;-71
2021/09/21 00:57:00;;;;;;;14.67;13.77;;;13.50;99.90;;;;;;4979745;28;20462;-73
2021/09/21 00:59:27;;;;;;;14.60;13.43;;;13.50;99.90;;;;;;4991030;28;21107;-72
2021/09/21 01:01:56;;;;;;;15.60;14.60;;;13.50;99.90;;;;;;4990037;28;20467;-70
2021/09/21 01:04:23;;;;;;;15.30;14.40;;;13.50;99.90;;;;;;4976892;28;20466;-72
2021/09/21 01:06:50;;;;;;;15.70;14.50;;;13.50;99.90;;;;;;4977521;28;20466;-71
2021/09/21 01:09:19;;;;;;;15.80;14.70;;;13.50;99.90;;;;;;4980530;28;20478;-72
2021/09/21 01:11:48;;;;;;;16.17;15.10;;;13.50;99.90;;;;;;4983902;28;20500;-72
2021/09/21 01:14:16;;;;;;;16.27;15.27;;;13.50;99.90;;;;;;4983350;28;21044;-70
2021/09/21 01:16:43;;;;;;;18.00;16.03;;;13.40;99.90;;;;;;4974979;28;20459;-72
2021/09/21 01:19:14;;;;;;;16.30;15.20;;;13.40;99.90;;;;;;4978544;28;20950;-71
2021/09/21 01:21:43;;;;;;;16.40;15.23;;;13.40;99.90;;;;;;4986665;28;20466;-71
2021/09/21 01:24:12;;;;;;;15.63;14.53;;;13.40;99.90;;;;;;4978371;28;20477;-72
2021/09/21 01:26:38;;;;;;;15.30;14.40;;;13.30;99.90;;;;;;4995664;28;20481;-70
2021/09/21 01:29:07;;;;;;;15.03;14.23;;;13.40;99.90;;;;;;4989010;28;20832;-71
2021/09/21 01:31:39;;;;;;;15.77;14.70;;;13.40;99.90;;;;;;4985269;28;20482;-70
2021/09/21 01:34:07;;;;;;;15.93;15.03;;;13.30;99.90;;;;;;4979668;28;20490;-70
2021/09/21 01:36:35;;;;;;;16.10;15.00;;;13.40;99.90;;;;;;4988239;28;20494;-71
2021/09/21 01:39:05;;;;;;;15.67;14.67;;;13.40;99.90;;;;;;4986705;28;20466;-70
2021/09/21 01:41:32;;;;;;;16.30;14.80;;;13.30;99.90;;;;;;4973365;28;20467;-71
2021/09/21 01:43:59;;;;;;;16.40;15.30;;;13.30;99.90;;;;;;4981700;28;20808;-71
2021/09/21 01:46:27;;;;;;;16.17;15.07;;;13.30;99.90;;;;;;4979650;28;22585;-70
2021/09/21 01:48:54;;;;;;;16.47;15.33;;;13.30;99.90;;;;;;4983320;28;20819;-71
2021/09/21 01:51:30;;;;;;;16.27;15.37;;;13.40;99.90;;;;;;4984215;28;20456;-72
2021/09/21 01:54:11;;;;;;;15.37;14.57;;;13.30;99.90;;;;;;4984285;28;20470;-70
2021/09/21 01:59:25;;;;;;;16.20;15.13;;;13.30;99.90;;;;;;4974722;28;20467;-71
2021/09/21 02:01:52;;;;;;;15.73;14.80;;;13.30;99.90;;;;;;4982167;28;20463;-71
2021/09/21 02:04:20;;;;;;;16.33;15.23;;;13.20;99.90;;;;;;4991738;28;20468;-71
2021/09/21 02:06:48;;;;;;;15.50;14.60;;;13.20;99.90;;;;;;4983591;28;20465;-72
2021/09/21 02:09:17;;;;;;;15.93;14.93;;;13.20;99.90;;;;;;4983586;28;20551;-72
2021/09/21 02:11:47;;;;;;;17.73;16.23;;;13.20;99.90;;;;;;4988504;28;20832;-70
2021/09/21 02:14:15;;;;;;;15.03;14.03;;;13.20;99.90;;;;;;4984122;28;20466;-70
2021/09/21 02:16:43;;;;;;;16.90;15.57;;;13.20;99.90;;;;;;4985606;28;20463;-70
2021/09/21 02:19:11;;;;;;;16.27;15.07;;;13.10;99.90;;;;;;4987997;28;20545;-71
2021/09/21 02:21:38;;;;;;;15.70;14.70;;;13.00;99.90;;;;;;4986345;28;20457;-70
2021/09/21 02:24:06;;;;;;;18.07;16.50;;;13.00;99.90;;;;;;4982502;28;20457;-71
2021/09/21 02:26:34;;;;;;;16.73;15.70;;;12.90;99.90;;;;;;4975342;28;20546;-72
2021/09/21 02:29:03;;;;;;;16.23;15.13;;;12.90;99.90;;;;;;4989545;28;20482;-71
2021/09/21 02:31:31;;;;;;;16.47;15.23;;;12.90;99.90;;;;;;4983236;28;20498;-71
2021/09/21 02:33:59;;;;;;;16.37;15.17;;;13.00;99.90;;;;;;4983515;28;20458;-71
2021/09/21 02:36:28;;;;;;;16.00;15.00;;;13.00;99.90;;;;;;4978813;28;20469;-72
2021/09/21 02:38:55;;;;;;;16.70;14.90;;;13.00;99.90;;;;;;4994992;28;20458;-70
2021/09/21 02:41:22;;;;;;;16.77;15.33;;;13.00;99.90;;;;;;4992377;28;20474;-72
2021/09/21 02:43:52;;;;;;;15.97;14.97;;;13.00;99.90;;;;;;4988283;28;20465;-71
2021/09/21 02:46:21;;;;;;;16.30;15.27;;;13.10;99.90;;;;;;4991964;28;20470;-71
2021/09/21 02:48:48;;;;;;;16.43;15.30;;;13.10;99.90;;;;;;4986627;28;20464;-71
2021/09/21 02:51:15;;;;;;;16.27;15.03;;;13.10;99.90;;;;;;4984027;28;20473;-72
2021/09/21 02:53:42;;;;;;;17.47;16.20;;;13.10;99.90;;;;;;4983182;28;20497;-71
2021/09/21 02:56:12;;;;;;;17.03;15.60;;;13.10;99.90;;;;;;4982788;28;20561;-71
2021/09/21 02:58:40;;;;;;;16.20;15.20;;;13.10;99.90;;;;;;4983209;28;20470;-71
2021/09/21 03:01:07;;;;;;;16.40;15.30;;;13.10;99.90;;;;;;4980897;28;20466;-72
2021/09/21 03:03:43;;;;;;;16.60;15.50;;;13.10;99.90;;;;;;4983229;28;20653;-70
2021/09/21 03:06:20;;;;;;;15.73;14.70;;;13.10;99.90;;;;;;4992563;28;20461;-70
2021/09/21 03:08:49;;;;;;;16.50;15.00;;;13.10;99.90;;;;;;4986573;28;20469;-71
2021/09/21 03:11:18;;;;;;;16.67;15.40;;;13.10;99.90;;;;;;4989666;28;21213;-69
2021/09/21 03:19:17;;;;;;;16.43;15.33;;;13.30;99.90;;;;;;4987288;28;20457;-71
2021/09/21 03:21:45;;;;;;;16.50;15.10;;;13.20;99.90;;;;;;4980750;28;20450;-70
2021/09/21 03:24:13;;;;;;;17.20;15.57;;;13.20;99.90;;;;;;4976528;28;20820;-70
2021/09/21 03:26:40;;;;;;;17.20;16.10;;;13.10;99.90;;;;;;4984911;28;21065;-72
2021/09/21 03:29:07;;;;;;;16.80;15.50;;;13.00;99.90;;;;;;4999363;28;20544;-71
2021/09/21 03:31:35;;;;;;;17.97;16.63;;;13.00;99.90;;;;;;4987738;28;20474;-72
2021/09/21 03:34:03;;;;;;;18.27;16.67;;;13.00;99.90;;;;;;4983786;28;20582;-70
2021/09/21 03:36:31;;;;;;;18.50;17.20;;;12.90;99.90;;;;;;4980115;28;20466;-71
2021/09/21 03:38:58;;;;;;;16.20;15.20;;;12.80;99.90;;;;;;4982216;28;20469;-71
2021/09/21 03:41:25;;;;;;;17.73;16.40;;;12.80;99.90;;;;;;4985867;28;20793;-71
2021/09/21 03:43:52;;;;;;;17.30;16.00;;;12.80;99.90;;;;;;4982930;28;20539;-71
2021/09/21 03:46:19;;;;;;;18.63;17.37;;;12.80;99.90;;;;;;4985869;28;20471;-72
2021/09/21 03:48:46;;;;;;;19.10;17.13;;;12.90;99.90;;;;;;4988014;28;20454;-72
2021/09/21 03:51:13;;;;;;;17.20;16.00;;;13.00;99.90;;;;;;4990561;28;20528;-72
2021/09/21 03:53:42;;;;;;;20.10;17.07;;;13.00;99.90;;;;;;4985516;28;20501;-72
2021/09/21 03:56:10;;;;;;;16.40;15.20;;;13.00;99.90;;;;;;4980245;28;20549;-71
2021/09/21 03:58:37;;;;;;;18.47;16.77;;;13.00;99.90;;;;;;4983294;28;20458;-71
2021/09/21 04:01:05;;;;;;;17.17;16.07;;;13.00;99.90;;;;;;4990071;28;20549;-71
2021/09/21 04:03:32;;;;;;;17.33;16.23;;;13.10;99.90;;;;;;4977025;28;20474;-70
2021/09/21 04:06:00;;;;;;;17.00;15.80;;;13.10;99.90;;;;;;4986510;28;20454;-71
2021/09/21 04:08:28;;;;;;;16.73;15.53;;;13.10;99.90;;;;;;4983491;28;20461;-71
2021/09/21 04:10:58;;;;;;;16.93;15.80;;;13.10;99.90;;;;;;4977591;28;20918;-70
2021/09/21 04:13:25;;;;;;;17.80;16.50;;;13.00;99.90;;;;;;4984624;28;20493;-72
2021/09/21 04:15:54;;;;;;;18.63;17.40;;;12.90;99.90;;;;;;4974397;28;20789;-71
2021/09/21 04:18:21;;;;;;;17.97;16.77;;;12.90;99.90;;;;;;4980695;28;20470;-70
2021/09/21 04:20:49;;;;;;;17.67;15.97;;;12.80;99.90;;;;;;4994094;28;20453;-70
2021/09/21 04:23:16;;;;;;;16.63;15.50;;;12.70;99.90;;;;;;4987353;28;20472;-72
2021/09/21 04:25:45;;;;;;;17.70;16.40;;;12.70;99.90;;;;;;4982167;28;20560;-71
2021/09/21 04:28:14;;;;;;;18.73;17.23;;;12.70;99.90;;;;;;4989075;28;20474;-70
2021/09/21 04:30:43;;;;;;;17.73;16.50;;;12.60;99.90;;;;;;4979771;28;20974;-70
2021/09/21 04:33:11;;;;;;;21.00;17.10;;;12.70;99.90;;;;;;4981635;28;20498;-71
2021/09/21 04:35:40;;;;;;;18.30;16.93;;;12.60;99.90;;;;;;4985409;28;20827;-70
2021/09/21 04:38:09;;;;;;;17.80;16.50;;;12.70;99.90;;;;;;4993122;28;20474;-71
2021/09/21 04:40:37;;;;;;;18.50;17.20;;;12.80;99.90;;;;;;4982487;28;20451;-72
2021/09/21 04:43:05;;;;;;;18.00;16.77;;;12.80;99.90;;;;;;4984706;28;20470;-72
2021/09/21 04:45:36;;;;;;;18.83;17.23;;;12.90;99.90;;;;;;4991282;28;20856;-71
2021/09/21 04:48:04;;;;;;;17.30;16.20;;;12.90;99.90;;;;;;4976072;28;20464;-71
2021/09/21 04:50:32;;;;;;;18.00;16.60;;;12.90;99.90;;;;;;4984545;28;21087;-70
2021/09/21 04:53:00;;;;;;;17.30;16.20;;;12.90;99.90;;;;;;4979669;28;20561;-71
2021/09/21 04:55:26;;;;;;;18.13;16.80;;;12.80;99.90;;;;;;4985081;28;20940;-71
2021/09/21 04:57:53;;;;;;;16.97;15.73;;;12.70;99.90;;;;;;4984235;28;20464;-72
2021/09/21 05:00:22;;;;;;;16.93;15.63;;;12.70;99.90;;;;;;4981463;28;20458;-70
2021/09/21 05:02:50;;;;;;;19.00;17.50;;;12.50;99.90;;;;;;4991467;28;20458;-71
2021/09/21 05:05:19;;;;;;;18.40;17.17;;;12.50;99.90;;;;;;4987447;28;20469;-70
2021/09/21 05:07:48;;;;;;;18.40;16.97;;;12.50;99.90;;;;;;4982540;28;20516;-71
2021/09/21 05:10:16;;;;;;;18.87;17.57;;;12.60;99.90;;;;;;4986228;28;20463;-71
2021/09/21 05:12:43;;;;;;;18.27;16.97;;;12.60;99.90;;;;;;4977077;28;20479;-72
2021/09/21 05:15:11;;;;;;;19.07;17.53;;;12.60;99.90;;;;;;4988339;28;20466;-71
2021/09/21 05:17:39;;;;;;;17.33;16.20;;;12.60;99.90;;;;;;4987828;28;20807;-70
2021/09/21 05:20:10;;;;;;;17.53;16.13;;;12.60;99.90;;;;;;4985450;28;20462;-70
2021/09/21 05:22:38;;;;;;;18.67;17.00;;;12.50;99.90;;;;;;4983600;28;20466;-70
2021/09/21 05:25:06;;;;;;;19.20;17.60;;;12.50;99.90;;;;;;4974746;28;20459;-71
2021/09/21 05:27:34;;;;;;;18.73;16.80;;;12.40;99.90;;;;;;4979833;28;20491;-70
2021/09/21 05:30:01;;;;;;;18.00;16.57;;;12.30;99.90;;;;;;4991378;28;20522;-71
2021/09/21 05:32:28;;;;;;;19.23;17.80;;;12.30;99.90;;;;;;4981717;28;20468;-72
2021/09/21 05:34:56;;;;;;;20.60;18.63;;;12.20;99.90;;;;;;4982939;28;20489;-72
2021/09/21 05:37:26;;;;;;;18.17;16.60;;;12.20;99.90;;;;;;4986884;28;21005;-71
2021/09/21 05:39:53;;;;;;;19.10;17.67;;;12.00;99.90;;;;;;4988102;28;20453;-71
2021/09/21 05:42:20;;;;;;;20.03;18.27;;;11.90;99.90;;;;;;4981855;28;20948;-70
2021/09/21 05:44:47;;;;;;;19.77;18.17;;;11.80;99.90;;;;;;4986601;28;20458;-71
2021/09/21 05:47:15;;;;;;;19.67;17.90;;;11.70;99.90;;;;;;4982977;28;20454;-71
2021/09/21 05:49:42;;;;;;;19.47;18.17;;;11.60;99.90;;;;;;4986501;28;20557;-72
2021/09/21 05:52:09;;;;;;;20.03;18.60;;;11.50;99.90;;;;;;4987028;28;20486;-71
2021/09/21 05:54:38;;;;;;;20.30;18.60;;;11.50;99.90;;;;;;4988349;28;20489;-72
2021/09/21 05:57:05;;;;;;;21.07;19.50;;;11.40;99.90;;;;;;4978769;28;20949;-70
2021/09/21 05:59:33;;;;;;;21.30;19.27;;;11.30;99.90;;;;;;4985952;28;20468;-70
2021/09/21 06:02:00;;;;;;;21.90;19.90;;;11.20;99.90;;;;;;4983889;28;20471;-71
2021/09/21 06:04:28;;;;;;;23.87;20.43;;;11.10;99.90;;;;;;4986350;28;20489;-71
2021/09/21 06:06:56;;;;;;;21.30;19.90;;;11.10;99.90;;;;;;4985716;28;20455;-70
2021/09/21 06:09:23;;;;;;;21.17;19.77;;;11.00;99.90;;;;;;4982414;28;20482;-71
2021/09/21 06:11:52;;;;;;;23.27;21.17;;;11.00;99.90;;;;;;4985281;28;20579;-72
2021/09/21 06:14:20;;;;;;;22.57;20.77;;;11.00;99.90;;;;;;4978570;28;20493;-71
2021/09/21 06:16:47;;;;;;;23.20;21.30;;;11.00;99.90;;;;;;4977742;28;20468;-70
2021/09/21 06:19:14;;;;;;;21.90;20.40;;;11.00;99.90;;;;;;4992222;28;20977;-71
2021/09/21 06:21:41;;;;;;;22.30;20.50;;;11.10;99.90;;;;;;4986964;28;20469;-71
2021/09/21 06:24:08;;;;;;;21.43;19.67;;;11.10;99.90;;;;;;4985754;28;20460;-72
2021/09/21 06:26:36;;;;;;;23.03;21.03;;;11.20;99.90;;;;;;4979576;28;20467;-72
2021/09/21 06:29:05;;;;;;;22.77;20.60;;;11.20;99.90;;;;;;4977607;28;20458;-70
2021/09/21 06:31:33;;;;;;;21.37;19.53;;;11.30;99.90;;;;;;4986578;28;20964;-70
2021/09/21 06:34:01;;;;;;;24.47;21.90;;;11.30;99.90;;;;;;4977745;28;20501;-72
2021/09/21 06:36:28;;;;;;;23.40;21.17;;;11.40;99.90;;;;;;4982398;28;20454;-72
2021/09/21 06:38:56;;;;;;;23.13;21.13;;;11.60;99.90;;;;;;4981939;28;20550;-71
2021/09/21 06:41:23;;;;;;;22.97;20.87;;;11.70;99.90;;;;;;4979937;28;20476;-72
2021/09/21 06:43:50;;;;;;;22.23;20.30;;;11.80;99.90;;;;;;4973894;28;20451;-71
2021/09/21 06:46:18;;;;;;;23.17;21.17;;;11.90;99.90;;;;;;4977833;28;20471;-72
2021/09/21 06:48:47;;;;;;;24.50;20.93;;;12.00;99.90;;;;;;4987488;28;20462;-70
2021/09/21 06:51:14;;;;;;;23.00;21.00;;;12.10;99.90;;;;;;4983224;28;20472;-71
2021/09/21 06:53:42;;;;;;;23.03;21.20;;;12.20;99.90;;;;;;4980586;28;20478;-71
2021/09/21 06:56:09;;;;;;;22.73;20.83;;;12.20;99.90;;;;;;4983376;28;20454;-72
2021/09/21 06:58:37;;;;;;;21.90;20.07;;;12.10;99.90;;;;;;4980370;28;20738;-71
2021/09/21 07:01:04;;;;;;;22.60;20.70;;;12.10;99.90;;;;;;4989790;28;20473;-72
2021/09/21 07:03:32;;;;;;;21.80;20.03;;;12.10;99.90;;;;;;4983889;28;20465;-70
2021/09/21 07:06:02;;;;;;;22.60;20.50;;;12.10;99.90;;;;;;4986143;28;20470;-70
2021/09/21 07:08:30;;;;;;;22.57;20.43;;;12.20;99.90;;;;;;4980035;28;20453;-72
2021/09/21 07:10:57;;;;;;;24.13;22.10;;;12.40;99.90;;;;;;4978914;28;20482;-71
2021/09/21 07:13:24;;;;;;;23.13;21.33;;;12.50;99.90;;;;;;4981677;28;20487;-71
2021/09/21 07:15:51;;;;;;;21.73;20.13;;;12.60;99.90;;;;;;4981614;28;20462;-71
2021/09/21 07:18:20;;;;;;;22.83;20.83;;;12.60;99.90;;;;;;4979737;28;20553;-70
2021/09/21 07:20:50;;;;;;;22.17;20.20;;;12.70;99.90;;;;;;4981489;28;20466;-71
2021/09/21 07:23:18;;;;;;;23.67;20.83;;;12.70;99.90;;;;;;4986351;28;20470;-71
2021/09/21 07:25:45;;;;;;;22.10;20.30;;;12.80;99.90;;;;;;4991125;28;20837;-71
2021/09/21 07:28:12;;;;;;;20.57;19.13;;;12.90;99.90;;;;;;4992488;28;20487;-71
2021/09/21 07:30:39;;;;;;;22.53;20.83;;;13.10;99.90;;;;;;4984556;28;20481;-69
2021/09/21 07:33:12;;;;;;;21.37;19.40;;;13.20;99.90;;;;;;4980647;28;20925;-71
2021/09/21 07:35:39;;;;;;;21.53;19.73;;;13.30;99.90;;;;;;4982129;28;20481;-71
2021/09/21 07:38:10;;;;;;;20.77;19.27;;;13.40;99.90;;;;;;4985449;28;20454;-71
2021/09/21 07:40:38;;;;;;;20.93;19.20;;;13.50;99.90;;;;;;4982703;28;20550;-71
2021/09/21 07:43:06;;;;;;;19.87;18.47;;;13.60;99.90;;;;;;4977647;28;20927;-71
2021/09/21 07:45:34;;;;;;;22.27;20.20;;;13.70;99.90;;;;;;4985613;28;20463;-70
2021/09/21 07:48:04;;;;;;;19.63;18.17;;;13.80;99.90;;;;;;4979500;28;20467;-71
2021/09/21 07:50:31;;;;;;;19.87;18.17;;;14.00;99.90;;;;;;4979226;28;20757;-70
2021/09/21 07:52:59;;;;;;;19.20;17.50;;;14.20;99.90;;;;;;4972968;28;20507;-72
2021/09/21 07:55:28;;;;;;;18.40;17.10;;;14.30;99.90;;;;;;4974038;28;20490;-70
2021/09/21 07:57:56;;;;;;;19.50;17.90;;;14.40;99.90;;;;;;4981043;28;20455;-71
2021/09/21 08:00:25;;;;;;;19.40;18.10;;;14.50;99.90;;;;;;4981514;28;20474;-72
2021/09/21 08:02:52;;;;;;;19.73;18.23;;;14.50;99.90;;;;;;4981080;28;20470;-71
2021/09/21 08:05:20;;;;;;;18.33;16.53;;;14.60;99.90;;;;;;4983438;28;20980;-71
2021/09/21 08:07:47;;;;;;;19.80;17.90;;;14.70;99.90;;;;;;4978138;28;20459;-70
2021/09/21 08:10:16;;;;;;;18.80;17.50;;;14.80;99.90;;;;;;4984879;28;20549;-72
2021/09/21 08:12:45;;;;;;;21.73;18.03;;;15.00;99.90;;;;;;4979144;28;20865;-71
2021/09/21 08:15:14;;;;;;;19.60;18.17;;;15.00;99.90;;;;;;4978242;28;20481;-70
2021/09/21 08:17:41;;;;;;;19.30;17.90;;;15.20;99.90;;;;;;4981517;28;20902;-70
2021/09/21 08:20:10;;;;;;;20.20;18.60;;;15.30;99.90;;;;;;4982585;28;20455;-70
2021/09/21 08:22:37;;;;;;;20.80;19.17;;;15.50;99.90;;;;;;4990569;28;20470;-70
2021/09/21 08:25:05;;;;;;;20.13;18.43;;;15.40;99.90;;;;;;4977804;28;20461;-71
2021/09/21 08:27:33;;;;;;;20.73;19.03;;;15.50;99.90;;;;;;4977996;28;20454;-72
2021/09/21 08:30:03;;;;;;;19.70;17.80;;;15.70;99.90;;;;;;4991243;28;20792;-72
2021/09/21 08:32:32;;;;;;;21.13;19.53;;;15.80;99.90;;;;;;4985579;28;20486;-70
2021/09/21 08:34:59;;;;;;;20.00;18.60;;;15.90;99.90;;;;;;4984018;28;20489;-70
2021/09/21 08:37:27;;;;;;;20.27;18.70;;;16.10;99.90;;;;;;4981124;28;20530;-70
2021/09/21 08:39:54;;;;;;;20.33;18.73;;;16.10;99.90;;;;;;4989143;28;20459;-70
2021/09/21 08:42:20;;;;;;;19.13;17.80;;;16.20;99.90;;;;;;4980946;28;20452;-71
2021/09/21 08:44:48;;;;;;;18.63;16.93;;;16.40;99.90;;;;;;4977513;28;20463;-71
2021/09/21 08:47:17;;;;;;;19.20;17.80;;;16.50;99.90;;;;;;4984106;28;20455;-71
2021/09/21 08:49:44;;;;;;;27.57;19.00;;;16.60;99.90;;;;;;4982356;28;20812;-70
2021/09/21 08:52:13;;;;;;;18.80;17.30;;;16.70;99.90;;;;;;4982110;28;20455;-71
2021/09/21 08:54:41;;;;;;;17.47;16.27;;;16.70;99.90;;;;;;4987561;28;20945;-71
2021/09/21 08:57:10;;;;;;;18.70;17.40;;;16.90;99.90;;;;;;4982400;28;20474;-73
2021/09/21 08:59:38;;;;;;;19.93;17.87;;;17.20;99.90;;;;;;4981874;28;20454;-72
2021/09/21 09:02:06;;;;;;;19.10;17.63;;;17.40;99.90;;;;;;4984138;28;20460;-71
2021/09/21 09:04:35;;;;;;;20.37;18.27;;;17.40;99.90;;;;;;4979714;28;20466;-73
2021/09/21 09:07:02;;;;;;;19.03;17.50;;;17.50;99.90;;;;;;4974342;28;20468;-71
2021/09/21 09:09:34;;;;;;;18.90;17.30;;;17.60;99.90;;;;;;4977453;28;21306;-71
2021/09/21 09:12:06;;;;;;;18.73;17.33;;;17.50;99.90;;;;;;4981284;28;20836;-72
2021/09/21 09:14:36;;;;;;;19.50;17.90;;;17.50;99.90;;;;;;4984134;28;20845;-70
2021/09/21 09:17:06;;;;;;;18.03;16.43;;;17.60;99.90;;;;;;4981445;28;20546;-71
2021/09/21 09:19:38;;;;;;;17.70;16.50;;;17.60;99.90;;;;;;4981430;28;20461;-72
2021/09/21 09:22:08;;;;;;;17.77;16.70;;;18.00;99.90;;;;;;4977222;28;20454;-70
2021/09/21 09:24:47;;;;;;;18.63;17.17;;;18.20;99.90;;;;;;4973663;28;20478;-71
2021/09/21 09:27:14;;;;;;;17.10;15.90;;;18.20;99.90;;;;;;4979837;28;20757;-70
2021/09/21 09:29:53;;;;;;;17.47;16.23;;;18.30;99.90;;;;;;4976975;28;21022;-70
2021/09/21 09:32:21;;;;;;;18.47;16.93;;;18.90;99.20;;;;;;4970855;28;21046;-71
2021/09/21 09:34:52;;;;;;;18.77;16.80;;;19.40;98.50;;;;;;4984758;28;20559;-70
2021/09/21 09:37:19;;;;;;;18.27;16.57;;;20.00;97.40;;;;;;4984005;28;20463;-71
2021/09/21 09:39:48;;;;;;;17.50;16.10;;;20.20;95.20;;;;;;4986245;28;20458;-71
2021/09/21 09:42:15;;;;;;;16.97;15.63;;;20.60;94.00;;;;;;4986233;28;20468;-68
2021/09/21 09:44:44;;;;;;;17.33;15.83;;;21.20;94.20;;;;;;4981561;28;20818;-70
2021/09/21 09:47:11;;;;;;;16.27;15.27;;;21.20;92.60;;;;;;4981139;28;20473;-68
2021/09/21 09:49:41;;;;;;;16.73;15.33;;;21.40;91.30;;;;;;4976167;28;20482;-69
2021/09/21 09:52:11;;;;;;;16.53;15.30;;;21.80;90.70;;;;;;4982164;28;20557;-69
2021/09/21 09:54:40;;;;;;;15.80;14.80;;;22.30;86.70;;;;;;4978351;28;20506;-70
2021/09/21 09:57:09;;;;;;;15.80;14.90;;;23.20;85.60;;;;;;4979904;28;20510;-71
2021/09/21 09:59:37;;;;;;;15.03;14.23;;;23.10;81.70;;;;;;4977598;28;20708;-69
2021/09/21 10:02:04;;;;;;;15.83;14.63;;;23.30;80.90;;;;;;4973528;28;20470;-70
2021/09/21 10:04:32;;;;;;;14.77;14.07;;;23.80;78.40;;;;;;4978918;28;20494;-69
2021/09/21 10:07:00;;;;;;;14.97;14.17;;;23.70;76.60;;;;;;4982283;28;20535;-69
2021/09/21 10:09:28;;;;;;;14.87;13.97;;;23.80;78.70;;;;;;4978490;28;20453;-71
2021/09/21 10:12:00;;;;;;;15.53;14.43;;;23.30;74.50;;;;;;4975008;28;20479;-70
2021/09/21 10:14:28;;;;;;;14.20;13.53;;;22.90;74.80;;;;;;4977861;28;20582;-69
2021/09/21 10:17:00;;;;;;;14.23;13.50;;;23.30;73.90;;;;;;4994464;28;20455;-71
2021/09/21 10:19:29;;;;;;;14.93;14.07;;;23.60;70.30;;;;;;4989680;28;20515;-68
2021/09/21 10:21:57;;;;;;;28.67;14.63;;;23.20;69.50;;;;;;4980773;28;20469;-69
2021/09/21 10:24:39;;;;;;;15.40;14.33;;;22.70;69.00;;;;;;4978128;28;20477;-70
2021/09/21 10:27:07;;;;;;;14.53;13.73;;;22.90;67.80;;;;;;4978078;28;20593;-69
2021/09/21 10:29:35;;;;;;;15.33;13.90;;;23.20;69.00;;;;;;4978583;28;20468;-68
2021/09/21 10:32:09;;;;;;;14.03;13.33;;;23.60;68.50;;;;;;4981231;28;20461;-70
2021/09/21 10:34:40;;;;;;;15.07;13.87;;;23.60;67.00;;;;;;4979129;28;20575;-70
2021/09/21 10:37:07;;;;;;;14.10;13.50;;;23.90;65.70;;;;;;4980209;28;20799;-71
2021/09/21 10:39:36;;;;;;;16.13;15.03;;;24.40;66.70;;;;;;4988807;28;20466;-69
2021/09/21 10:42:06;;;;;;;14.40;13.50;;;24.70;64.00;;;;;;4976279;28;20459;-70
2021/09/21 10:44:34;;;;;;;14.50;13.80;;;24.80;64.80;;;;;;4986559;28;20459;-68
2021/09/21 10:47:04;;;;;;;14.70;14.00;;;25.00;64.50;;;;;;4986546;28;20462;-69
2021/09/21 10:49:35;;;;;;;15.13;14.33;;;25.90;61.00;;;;;;4986668;28;20457;-69
2021/09/21 10:52:04;;;;;;;14.90;14.10;;;26.20;60.50;;;;;;4977611;28;20451;-68
2021/09/21 10:54:32;;;;;;;14.87;14.00;;;25.20;57.80;;;;;;4988986;28;20481;-72
2021/09/21 10:57:14;;;;;;;14.33;13.73;;;25.30;58.70;;;;;;4984536;28;20459;-69
2021/09/21 10:59:55;;;;;;;15.17;14.37;;;24.30;58.20;;;;;;4976506;28;20474;-69
2021/09/21 11:02:24;;;;;;;14.90;13.90;;;24.10;59.10;;;;;;4994548;28;20517;-72
2021/09/21 11:04:51;;;;;;;14.83;14.03;;;24.00;59.00;;;;;;4980445;28;20462;-71
2021/09/21 11:07:19;;;;;;;14.63;13.93;;;24.50;58.50;;;;;;4992050;28;20537;-71
2021/09/21 11:09:51;;;;;;;16.10;15.00;;;24.70;58.10;;;;;;4985426;28;20814;-70
2021/09/21 11:12:22;;;;;;;14.53;13.83;;;24.60;58.00;;;;;;4983638;28;20493;-70
2021/09/21 11:14:51;;;;;;;14.43;13.63;;;24.60;56.90;;;;;;4986117;28;20494;-70
2021/09/21 11:17:22;;;;;;;14.30;13.60;;;25.30;57.00;;;;;;4988280;28;20538;-69
2021/09/21 11:19:53;;;;;;;15.40;14.37;;;26.30;56.90;;;;;;4990463;28;20805;-70
2021/09/21 11:22:26;;;;;;;14.60;13.80;;;26.50;57.60;;;;;;4976287;28;20526;-72
2021/09/21 11:25:00;;;;;;;14.60;13.70;;;26.60;57.30;;;;;;4987022;28;21044;-70
2021/09/21 11:27:29;;;;;;;13.90;13.30;;;26.30;55.10;;;;;;4984795;28;20466;-71
2021/09/21 11:30:03;;;;;;;14.23;13.43;;;26.60;56.90;;;;;;4994077;28;20561;-69
2021/09/21 11:32:30;;;;;;;14.60;13.70;;;26.50;54.70;;;;;;4990267;28;20762;-71
2021/09/21 11:34:59;;;;;;;14.87;13.93;;;26.30;55.50;;;;;;4988420;28;20517;-70
2021/09/21 11:37:27;;;;;;;14.00;13.30;;;26.10;54.00;;;;;;4984526;28;20466;-72
2021/09/21 11:39:55;;;;;;;13.70;13.00;;;26.50;53.60;;;;;;4978866;28;20467;-72
2021/09/21 11:42:23;;;;;;;15.53;14.73;;;26.10;55.10;;;;;;4986448;28;20462;-71
2021/09/21 11:44:59;;;;;;;14.60;13.90;;;25.60;55.50;;;;;;4984117;28;20490;-72
2021/09/21 11:47:35;;;;;;;14.57;13.87;;;25.20;55.50;;;;;;4997142;28;20458;-70
2021/09/21 11:50:02;;;;;;;14.53;13.73;;;25.00;56.60;;;;;;4994239;28;20808;-71
2021/09/21 11:52:29;;;;;;;14.63;13.90;;;25.60;56.50;;;;;;4987423;28;20571;-71
2021/09/21 11:54:56;;;;;;;14.33;13.50;;;25.30;54.60;;;;;;4979902;28;20479;-70
2021/09/21 11:57:23;;;;;;;13.97;13.23;;;25.70;55.60;;;;;;4985451;28;20470;-70
2021/09/21 11:59:53;;;;;;;14.57;13.87;;;26.40;55.00;;;;;;4984715;28;20478;-71
2021/09/21 12:02:20;;;;;;;14.23;13.50;;;26.50;53.80;;;;;;4984621;28;20870;-73
2021/09/21 12:04:48;;;;;;;13.83;13.13;;;27.00;52.30;;;;;;4980937;28;20460;-70
2021/09/21 12:07:16;;;;;;;14.00;13.30;;;27.60;52.50;;;;;;4991922;28;20516;-72
2021/09/21 12:09:44;;;;;;;15.33;14.53;;;27.50;51.10;;;;;;4984422;28;20462;-70
2021/09/21 12:12:18;;;;;;;14.17;13.27;;;27.80;51.30;;;;;;4978345;28;20879;-73
2021/09/21 12:14:57;;;;;;;14.63;13.70;;;28.00;51.00;;;;;;4981625;28;20473;-71
2021/09/21 12:17:26;;;;;;;14.47;13.63;;;26.90;52.00;;;;;;4987280;28;20466;-72
2021/09/21 12:20:00;;;;;;;13.87;13.07;;;26.10;52.10;;;;;;4987053;28;20459;-70
2021/09/21 12:22:27;;;;;;;14.43;13.53;;;25.70;52.50;;;;;;4984007;28;20462;-70
2021/09/21 12:25:06;;;;;;;15.07;14.27;;;25.60;53.00;;;;;;4982454;28;20467;-71
2021/09/21 12:27:35;;;;;;;15.17;13.93;;;25.80;52.90;;;;;;4990583;28;20480;-72
2021/09/21 12:30:06;;;;;;;14.40;13.50;;;25.80;52.70;;;;;;4980520;28;20471;-70
2021/09/21 12:32:35;;;;;;;14.43;13.73;;;26.10;52.90;;;;;;4984658;28;20456;-72
2021/09/21 12:35:07;;;;;;;14.53;13.60;;;25.80;51.60;;;;;;4989706;28;20491;-71
2021/09/21 12:37:39;;;;;;;15.13;14.03;;;25.50;52.40;;;;;;4987647;28;20549;-71
2021/09/21 12:40:14;;;;;;;14.60;13.70;;;25.70;52.50;;;;;;4978557;28;20521;-71
2021/09/21 12:42:43;;;;;;;14.00;13.30;;;26.20;52.00;;;;;;4970380;28;20465;-74